createdAt,value
2023-03-07T00:00:46.404Z,3.20
2023-03-07T00:03:20.951Z,3.20
2023-03-07T00:05:50.990Z,3.10
2023-03-07T00:08:20.750Z,3.10
2023-03-07T00:10:50.546Z,3.10
2023-03-07T00:13:20.369Z,3.10
2023-03-07T00:15:50.198Z,3.20
2023-03-07T00:18:22.552Z,3.10
2023-03-07T00:21:00.667Z,3.10
2023-03-07T00:23:30.590Z,3.10
2023-03-07T00:26:02.402Z,3.10
2023-03-07T00:28:32.647Z,3.20
2023-03-07T00:31:03.559Z,3.10
2023-03-07T00:33:36.107Z,3.10
2023-03-07T00:36:07.991Z,3.10
2023-03-07T00:38:38.151Z,3.20
2023-03-07T00:41:09.803Z,3.20
2023-03-07T00:43:40.504Z,3.20
2023-03-07T00:46:10.941Z,3.30
2023-03-07T00:48:43.643Z,3.20
2023-03-07T00:51:15.963Z,3.20
2023-03-07T00:53:46.259Z,3.20
2023-03-07T00:56:17.339Z,3.20
2023-03-07T00:58:47.738Z,3.20
2023-03-07T01:01:19.296Z,3.10
2023-03-07T01:03:53.748Z,3.10
2023-03-07T01:06:25.100Z,3.10
2023-03-07T01:08:55.233Z,3.10
2023-03-07T01:11:25.179Z,3.20
2023-03-07T01:13:57.816Z,3.20
2023-03-07T01:16:29.898Z,3.20
2023-03-07T01:19:04.373Z,3.20
2023-03-07T01:21:36.441Z,3.10
2023-03-07T01:24:06.741Z,3.20
2023-03-07T01:26:37.438Z,3.20
2023-03-07T01:29:08.967Z,3.10
2023-03-07T01:31:39.139Z,3.20
2023-03-07T01:34:11.520Z,3.20
2023-03-07T01:36:41.346Z,3.20
2023-03-07T01:39:15.167Z,3.20
2023-03-07T01:41:45.085Z,3.20
2023-03-07T01:44:19.072Z,3.20
2023-03-07T01:46:54.556Z,3.20
2023-03-07T01:49:31.223Z,3.20
2023-03-07T01:52:06.455Z,3.20
2023-03-07T01:54:40.391Z,3.10
2023-03-07T01:57:10.928Z,3.10
2023-03-07T01:59:47.083Z,3.10
2023-03-07T02:02:19.762Z,3.10
2023-03-07T02:04:57.261Z,3.10
2023-03-07T02:07:31.980Z,3.10
2023-03-07T02:10:04.080Z,3.10
2023-03-07T02:12:34.275Z,3.10
2023-03-07T02:15:05.278Z,3.10
2023-03-07T02:17:35.211Z,3.10
2023-03-07T02:20:30.774Z,3.10
2023-03-07T02:23:00.637Z,3.10
2023-03-07T02:25:34.478Z,3.10
2023-03-07T02:28:07.695Z,3.10
2023-03-07T02:30:39.658Z,3.10
2023-03-07T02:33:09.500Z,3.20
2023-03-07T02:35:39.347Z,3.10
2023-03-07T02:38:09.132Z,3.10
2023-03-07T02:40:40.132Z,3.10
2023-03-07T02:43:13.143Z,3.10
2023-03-07T02:45:43.064Z,3.20
2023-03-07T02:48:12.909Z,3.20
2023-03-07T02:50:42.692Z,3.20
2023-03-07T02:53:12.483Z,3.10
2023-03-07T02:55:42.223Z,3.10
2023-03-07T02:58:14.610Z,3.20
2023-03-07T03:00:44.602Z,3.10
2023-03-07T03:03:14.515Z,3.10
2023-03-07T03:05:44.365Z,3.10
2023-03-07T03:08:14.784Z,3.20
2023-03-07T03:10:44.675Z,3.20
2023-03-07T03:13:16.971Z,3.10
2023-03-07T03:15:46.801Z,3.10
2023-03-07T03:18:17.763Z,3.10
2023-03-07T03:20:47.568Z,3.10
2023-03-07T03:23:17.755Z,3.10
2023-03-07T03:25:48.253Z,3.20
2023-03-07T03:28:20.911Z,3.20
2023-03-07T03:31:00.215Z,3.30
2023-03-07T03:33:31.235Z,3.30
2023-03-07T03:36:02.183Z,3.40
2023-03-07T03:38:33.443Z,3.40
2023-03-07T03:41:07.616Z,3.40
2023-03-07T03:43:40.102Z,3.40
2023-03-07T03:46:09.903Z,3.40
2023-03-07T03:48:40.635Z,3.40
2023-03-07T03:51:14.464Z,3.40
2023-03-07T03:53:44.733Z,3.40
2023-03-07T03:56:15.881Z,3.40
2023-03-07T03:58:49.946Z,3.40
2023-03-07T04:01:20.384Z,3.30
2023-03-07T04:03:51.719Z,3.40
2023-03-07T04:06:23.398Z,3.30
2023-03-07T04:08:54.309Z,3.30
2023-03-07T04:11:25.060Z,3.30
2023-03-07T04:13:57.414Z,3.30
2023-03-07T04:16:27.313Z,3.30
2023-03-07T04:18:57.576Z,3.30
2023-03-07T04:21:27.361Z,3.30
2023-03-07T04:23:58.412Z,3.30
2023-03-07T04:26:28.258Z,3.30
2023-03-07T04:29:00.691Z,3.30
2023-03-07T04:31:31.490Z,3.30
2023-03-07T04:34:01.355Z,3.30
2023-03-07T04:36:31.130Z,3.40
2023-03-07T04:39:00.859Z,3.30
2023-03-07T04:41:30.763Z,3.30
2023-03-07T04:44:03.075Z,3.40
2023-03-07T04:46:32.894Z,3.40
2023-03-07T04:49:02.820Z,3.30
2023-03-07T04:51:32.598Z,3.40
2023-03-07T04:54:02.321Z,3.40
2023-03-07T04:56:32.174Z,3.40
2023-03-07T04:59:04.504Z,3.50
2023-03-07T05:01:34.363Z,3.50
2023-03-07T05:04:04.197Z,3.60
2023-03-07T05:06:34.121Z,3.60
2023-03-07T05:09:03.909Z,3.60
2023-03-07T05:11:33.731Z,3.70
2023-03-07T05:14:06.095Z,3.80
2023-03-07T05:16:35.971Z,3.90
2023-03-07T05:19:06.282Z,3.90
2023-03-07T05:21:38.787Z,3.90
2023-03-07T05:24:09.111Z,3.90
2023-03-07T05:26:39.365Z,3.90
2023-03-07T05:29:11.823Z,3.90
2023-03-07T05:31:41.663Z,3.90
2023-03-07T05:34:11.978Z,4.00
2023-03-07T05:36:41.814Z,4.00
2023-03-07T05:39:11.712Z,4.00
2023-03-07T05:41:41.785Z,4.00
2023-03-07T05:44:14.137Z,4.00
2023-03-07T05:46:43.932Z,4.00
2023-03-07T05:49:13.731Z,4.00
2023-03-07T05:51:43.515Z,4.00
2023-03-07T05:54:13.366Z,4.10
2023-03-07T05:56:43.099Z,4.00
2023-03-07T05:59:15.702Z,4.10
2023-03-07T06:01:45.601Z,4.00
2023-03-07T06:04:15.336Z,3.80
2023-03-07T06:06:45.118Z,3.70
2023-03-07T06:09:14.936Z,3.70
2023-03-07T06:11:44.670Z,3.70
2023-03-07T06:14:17.078Z,3.60
2023-03-07T06:16:47.034Z,3.70
2023-03-07T06:19:16.762Z,3.70
2023-03-07T06:21:46.652Z,3.60
2023-03-07T06:24:16.388Z,3.70
2023-03-07T06:26:46.109Z,3.70
2023-03-07T06:29:18.457Z,3.70
2023-03-07T06:31:48.218Z,3.70
2023-03-07T06:34:17.981Z,3.70
2023-03-07T06:36:48.580Z,3.70
2023-03-07T06:39:21.243Z,3.80
2023-03-07T06:41:51.340Z,3.80
2023-03-07T06:44:24.421Z,3.80
2023-03-07T06:46:54.134Z,3.80
2023-03-07T06:49:24.128Z,3.90
2023-03-07T06:51:54.036Z,3.90
2023-03-07T06:54:23.808Z,3.90
2023-03-07T06:56:55.122Z,4.00
2023-03-07T06:59:27.513Z,4.00
2023-03-07T07:01:57.412Z,4.10
2023-03-07T07:04:27.195Z,4.10
2023-03-07T07:06:56.928Z,4.10
2023-03-07T07:09:26.714Z,4.20
2023-03-07T07:11:56.533Z,4.20
2023-03-07T07:14:28.904Z,4.20
2023-03-07T07:16:58.694Z,4.20
2023-03-07T07:19:28.591Z,4.30
2023-03-07T07:21:58.363Z,4.30
2023-03-07T07:24:28.195Z,4.30
2023-03-07T07:26:58.399Z,4.30
2023-03-07T07:29:30.809Z,4.40
2023-03-07T07:32:00.699Z,4.50
2023-03-07T07:34:30.526Z,4.60
2023-03-07T07:37:00.310Z,4.70
2023-03-07T07:39:30.155Z,4.80
2023-03-07T07:42:00.235Z,4.90
2023-03-07T07:44:34.554Z,4.90
2023-03-07T07:47:04.701Z,5.00
2023-03-07T07:49:34.453Z,5.10
2023-03-07T07:52:04.275Z,5.10
2023-03-07T07:54:34.418Z,5.20
2023-03-07T07:57:04.361Z,5.40
2023-03-07T07:59:36.738Z,5.40
2023-03-07T08:02:06.615Z,5.50
2023-03-07T08:04:36.482Z,5.50
2023-03-07T08:07:06.554Z,5.60
2023-03-07T08:09:37.102Z,5.60
2023-03-07T08:12:07.675Z,5.60
2023-03-07T08:14:43.007Z,5.30
2023-03-07T08:17:12.953Z,5.70
2023-03-07T08:19:42.846Z,5.70
2023-03-07T08:22:12.637Z,5.80
2023-03-07T08:24:43.228Z,5.90
2023-03-07T08:27:13.016Z,6.10
2023-03-07T08:29:45.403Z,5.90
2023-03-07T08:32:17.447Z,6.00
2023-03-07T08:34:47.340Z,6.00
2023-03-07T08:37:17.079Z,6.10
2023-03-07T08:39:46.857Z,6.30
2023-03-07T08:42:16.834Z,6.20
2023-03-07T08:44:49.199Z,6.20
2023-03-07T08:47:19.035Z,6.30
2023-03-07T08:49:48.817Z,6.60
2023-03-07T08:52:18.585Z,6.70
2023-03-07T08:54:48.398Z,6.80
2023-03-07T08:57:18.171Z,6.80
2023-03-07T08:59:50.505Z,7.00
2023-03-07T09:02:20.549Z,7.00
2023-03-07T09:04:50.509Z,7.20
2023-03-07T09:07:20.578Z,7.40
2023-03-07T09:09:50.362Z,7.10
2023-03-07T09:12:20.523Z,6.90
2023-03-07T09:14:52.863Z,7.20
2023-03-07T09:17:22.656Z,7.10
2023-03-07T09:19:52.428Z,6.90
2023-03-07T09:22:22.281Z,7.30
2023-03-07T09:24:52.065Z,7.20
2023-03-07T09:27:22.095Z,7.20
2023-03-07T09:29:54.932Z,7.20
2023-03-07T09:32:24.979Z,7.30
2023-03-07T09:34:55.079Z,7.20
2023-03-07T09:37:24.853Z,7.20
2023-03-07T09:39:54.599Z,7.00
2023-03-07T09:42:30.367Z,6.90
2023-03-07T09:45:17.824Z,7.00
2023-03-07T09:48:11.457Z,6.70
2023-03-07T09:50:47.872Z,6.50
2023-03-07T09:53:24.515Z,6.60
2023-03-07T09:55:57.521Z,6.50
2023-03-07T09:58:29.822Z,6.70
2023-03-07T10:01:04.002Z,7.10
2023-03-07T10:03:40.377Z,6.90
2023-03-07T10:06:17.162Z,6.70
2023-03-07T10:08:47.140Z,7.00
2023-03-07T10:11:27.180Z,6.70
2023-03-07T10:14:22.763Z,6.70
2023-03-07T10:17:03.429Z,6.60
2023-03-07T10:19:39.997Z,6.70
2023-03-07T10:22:19.963Z,6.70
2023-03-07T10:25:03.295Z,6.80
2023-03-07T10:27:35.190Z,6.30
2023-03-07T10:30:17.890Z,6.40
2023-03-07T10:32:54.572Z,6.40
2023-03-07T10:35:25.997Z,6.60
2023-03-07T10:37:59.535Z,6.30
2023-03-07T10:40:33.145Z,6.30
2023-03-07T10:43:04.896Z,6.30
2023-03-07T10:45:37.968Z,6.20
2023-03-07T10:48:18.131Z,6.20
2023-03-07T10:50:56.239Z,6.20
2023-03-07T10:53:29.277Z,6.10
2023-03-07T10:56:13.349Z,6.20
2023-03-07T10:59:01.374Z,6.00
2023-03-07T11:01:31.550Z,6.10
2023-03-07T11:04:06.299Z,6.10
2023-03-07T11:06:39.367Z,6.10
2023-03-07T11:09:21.061Z,6.00
2023-03-07T11:11:54.739Z,6.10
2023-03-07T11:14:25.319Z,6.00
2023-03-07T11:16:57.163Z,6.10
2023-03-07T11:19:48.687Z,6.10
2023-03-07T11:22:24.812Z,6.00
2023-03-07T11:25:01.465Z,6.00
2023-03-07T11:27:40.720Z,6.00
2023-03-07T11:30:27.830Z,5.90
2023-03-07T11:33:13.239Z,6.00
2023-03-07T11:36:05.165Z,5.90
2023-03-07T11:38:43.722Z,6.00
2023-03-07T11:41:19.628Z,6.00
2023-03-07T11:44:07.715Z,6.00
2023-03-07T11:46:47.908Z,6.00
2023-03-07T11:49:32.547Z,6.10
2023-03-07T11:52:18.114Z,6.30
2023-03-07T11:54:56.055Z,6.30
2023-03-07T11:57:35.599Z,6.30
2023-03-07T12:00:26.214Z,6.60
2023-03-07T12:03:26.409Z,6.80
2023-03-07T12:06:15.901Z,6.60
2023-03-07T12:08:58.621Z,6.80
2023-03-07T12:11:47.420Z,7.00
2023-03-07T12:14:25.746Z,7.00
2023-03-07T12:17:08.715Z,6.90
2023-03-07T12:20:05.412Z,7.00
2023-03-07T12:22:46.530Z,7.10
2023-03-07T12:25:33.578Z,7.00
2023-03-07T12:28:12.496Z,6.90
2023-03-07T12:30:58.741Z,7.20
2023-03-07T12:33:35.073Z,7.00
2023-03-07T12:36:10.412Z,6.90
2023-03-07T12:38:45.119Z,6.80
2023-03-07T12:41:28.627Z,6.80
2023-03-07T12:44:05.359Z,6.90
2023-03-07T12:46:41.670Z,6.80
2023-03-07T12:49:19.289Z,7.00
2023-03-07T12:51:52.208Z,7.20
2023-03-07T12:54:26.019Z,7.20
2023-03-07T12:57:04.914Z,7.10
2023-03-07T12:59:37.279Z,7.30
2023-03-07T13:02:13.658Z,7.50
2023-03-07T13:04:45.280Z,7.60
2023-03-07T13:07:18.206Z,7.70
2023-03-07T13:09:51.143Z,7.70
2023-03-07T13:12:44.611Z,7.70
2023-03-07T13:15:49.974Z,7.70
2023-03-07T13:18:30.467Z,7.60
2023-03-07T13:21:15.019Z,7.40
2023-03-07T13:23:44.839Z,7.60
2023-03-07T13:26:16.607Z,7.50
2023-03-07T13:28:53.694Z,7.30
2023-03-07T13:31:47.259Z,6.90
2023-03-07T13:34:51.800Z,7.10
2023-03-07T13:37:51.932Z,7.00
2023-03-07T13:40:50.015Z,7.10
2023-03-07T13:44:00.593Z,7.20
2023-03-07T13:47:01.266Z,7.30
2023-03-07T13:49:47.840Z,7.20
2023-03-07T13:52:47.788Z,7.10
2023-03-07T13:55:25.464Z,7.20
2023-03-07T13:57:58.832Z,7.20
2023-03-07T14:00:39.983Z,7.40
2023-03-07T14:03:33.803Z,7.40
2023-03-07T14:06:06.785Z,7.50
2023-03-07T14:08:37.619Z,7.70
2023-03-07T14:11:09.507Z,7.70
2023-03-07T14:13:53.485Z,7.80
2023-03-07T14:16:47.987Z,7.60
2023-03-07T14:19:41.650Z,7.60
2023-03-07T14:22:21.662Z,7.60
2023-03-07T14:25:07.613Z,7.70
2023-03-07T14:27:52.826Z,7.60
2023-03-07T14:30:24.031Z,7.70
2023-03-07T14:32:54.478Z,7.90
2023-03-07T14:35:42.439Z,7.80
2023-03-07T14:38:22.448Z,7.70
2023-03-07T14:41:07.055Z,7.70
2023-03-07T14:43:50.894Z,7.60
2023-03-07T14:46:31.316Z,7.60
2023-03-07T14:49:15.629Z,7.40
2023-03-07T14:51:48.234Z,7.60
2023-03-07T14:54:20.811Z,7.70
2023-03-07T14:56:53.222Z,7.60
2023-03-07T14:59:28.899Z,7.40
2023-03-07T15:02:00.146Z,7.50
2023-03-07T15:04:32.607Z,7.60
2023-03-07T15:07:11.434Z,7.50
2023-03-07T15:09:42.213Z,7.50
2023-03-07T15:12:16.706Z,7.60
2023-03-07T15:14:51.062Z,7.70
2023-03-07T15:17:24.380Z,7.50
2023-03-07T15:19:58.354Z,7.40
2023-03-07T15:22:39.231Z,7.40
2023-03-07T15:25:10.874Z,7.30
2023-03-07T15:27:41.447Z,7.50
2023-03-07T15:30:29.614Z,7.60
2023-03-07T15:33:16.223Z,7.70
2023-03-07T15:35:47.202Z,7.30
2023-03-07T15:38:26.083Z,7.10
2023-03-07T15:40:55.853Z,7.00
2023-03-07T15:43:30.868Z,7.00
2023-03-07T15:46:05.888Z,6.90
2023-03-07T15:48:46.004Z,6.90
2023-03-07T15:51:19.103Z,6.90
2023-03-07T15:53:57.749Z,6.90
2023-03-07T15:56:34.000Z,7.20
2023-03-07T15:59:06.771Z,7.10
2023-03-07T16:01:36.630Z,7.10
2023-03-07T16:04:06.798Z,7.10
2023-03-07T16:06:46.945Z,7.10
2023-03-07T16:09:21.215Z,6.80
2023-03-07T16:11:50.973Z,6.70
2023-03-07T16:14:26.277Z,6.80
2023-03-07T16:16:57.302Z,6.80
2023-03-07T16:19:27.224Z,6.90
2023-03-07T16:21:56.998Z,6.80
2023-03-07T16:24:29.363Z,6.60
2023-03-07T16:26:59.220Z,6.50
2023-03-07T16:29:29.684Z,6.50
2023-03-07T16:32:01.301Z,6.30
2023-03-07T16:34:31.177Z,6.30
2023-03-07T16:37:00.955Z,6.40
2023-03-07T16:39:33.346Z,6.40
2023-03-07T16:42:03.391Z,6.30
2023-03-07T16:44:33.318Z,6.20
2023-03-07T16:47:08.560Z,6.20
2023-03-07T16:49:38.554Z,6.20
2023-03-07T16:52:09.676Z,6.10
2023-03-07T16:54:42.546Z,6.10
2023-03-07T16:57:16.471Z,6.00
2023-03-07T16:59:49.100Z,6.10
2023-03-07T17:02:21.107Z,6.20
2023-03-07T17:04:51.129Z,6.10
2023-03-07T17:07:23.468Z,6.10
2023-03-07T17:09:58.377Z,6.20
2023-03-07T17:12:28.134Z,6.20
2023-03-07T17:14:59.299Z,6.10
2023-03-07T17:17:33.373Z,6.10
2023-03-07T17:20:05.594Z,6.10
2023-03-07T17:22:35.574Z,6.00
2023-03-07T17:25:08.852Z,6.00
2023-03-07T17:27:43.924Z,6.00
2023-03-07T17:30:20.538Z,6.00
2023-03-07T17:32:50.693Z,6.00
2023-03-07T17:35:21.158Z,5.90
2023-03-07T17:37:53.457Z,5.90
2023-03-07T17:40:25.987Z,5.80
2023-03-07T17:42:57.746Z,5.70
2023-03-07T17:45:27.717Z,5.70
2023-03-07T17:47:57.793Z,5.70
2023-03-07T17:50:27.749Z,5.70
2023-03-07T17:52:58.340Z,5.60
2023-03-07T17:55:31.229Z,5.60
2023-03-07T17:58:01.195Z,5.50
2023-03-07T18:00:31.042Z,5.40
2023-03-07T18:03:00.876Z,5.40
2023-03-07T18:05:30.675Z,5.30
2023-03-07T18:08:00.553Z,5.30
2023-03-07T18:10:35.655Z,5.20
2023-03-07T18:13:05.477Z,5.20
2023-03-07T18:15:35.237Z,5.20
2023-03-07T18:18:06.900Z,5.20
2023-03-07T18:20:36.766Z,5.20
2023-03-07T18:23:06.605Z,5.20
2023-03-07T18:25:38.988Z,5.20
2023-03-07T18:28:08.784Z,5.20
2023-03-07T18:30:38.642Z,5.20
2023-03-07T18:33:08.430Z,5.20
2023-03-07T18:35:39.762Z,5.10
2023-03-07T18:38:09.783Z,5.10
2023-03-07T18:40:42.156Z,5.10
2023-03-07T18:43:12.103Z,5.10
2023-03-07T18:45:45.962Z,5.20
2023-03-07T18:48:16.179Z,5.20
2023-03-07T18:50:45.927Z,5.20
2023-03-07T18:53:15.818Z,5.20
2023-03-07T18:55:48.248Z,5.20
2023-03-07T18:58:18.267Z,5.20
2023-03-07T19:00:48.453Z,5.20
2023-03-07T19:03:19.127Z,5.20
2023-03-07T19:05:50.680Z,5.20
2023-03-07T19:08:20.514Z,5.20
2023-03-07T19:10:52.828Z,5.20
2023-03-07T19:13:22.667Z,5.20
2023-03-07T19:15:52.448Z,5.20
2023-03-07T19:18:22.219Z,5.20
2023-03-07T19:20:51.945Z,5.20
2023-03-07T19:23:21.716Z,5.20
2023-03-07T19:25:54.074Z,5.20
2023-03-07T19:28:23.894Z,5.20
2023-03-07T19:30:54.284Z,5.20
2023-03-07T19:33:24.144Z,5.20
2023-03-07T19:36:04.085Z,5.20
2023-03-07T19:38:34.048Z,5.20
2023-03-07T19:41:07.080Z,5.20
2023-03-07T19:43:36.925Z,5.10
2023-03-07T19:46:10.771Z,5.10
2023-03-07T19:48:41.018Z,5.10
2023-03-07T19:51:15.912Z,5.10
2023-03-07T19:53:46.125Z,5.10
2023-03-07T19:56:21.016Z,5.10
2023-03-07T19:58:51.276Z,5.10
2023-03-07T20:01:22.605Z,5.10
2023-03-07T20:03:53.226Z,5.00
2023-03-07T20:06:25.310Z,5.00
2023-03-07T20:08:56.964Z,5.00
2023-03-07T20:11:31.524Z,5.00
2023-03-07T20:14:02.148Z,5.00
2023-03-07T20:16:31.976Z,5.00
2023-03-07T20:19:04.114Z,5.00
2023-03-07T20:21:35.806Z,5.10
2023-03-07T20:24:05.954Z,5.10
2023-03-07T20:26:40.763Z,5.10
2023-03-07T20:29:12.056Z,5.20
2023-03-07T20:31:42.419Z,5.30
2023-03-07T20:34:13.262Z,5.40
2023-03-07T20:36:43.202Z,5.40
2023-03-07T20:39:15.581Z,5.40
2023-03-07T20:41:48.008Z,5.50
2023-03-07T20:44:18.654Z,5.50
2023-03-07T20:46:48.390Z,5.50
2023-03-07T20:49:18.560Z,5.50
2023-03-07T20:51:48.808Z,5.40
2023-03-07T20:54:20.500Z,5.40
2023-03-07T20:56:52.912Z,5.50
2023-03-07T20:59:23.626Z,5.50
2023-03-07T21:01:53.612Z,5.40
2023-03-07T21:04:23.503Z,5.40
2023-03-07T21:06:53.539Z,5.40
2023-03-07T21:09:24.577Z,5.50
2023-03-07T21:11:57.227Z,5.40
2023-03-07T21:14:27.020Z,5.30
2023-03-07T21:16:56.941Z,5.30
2023-03-07T21:19:26.820Z,5.30
2023-03-07T21:21:58.939Z,5.30
2023-03-07T21:24:28.881Z,5.30
2023-03-07T21:27:01.235Z,5.30
2023-03-07T21:29:30.992Z,5.30
2023-03-07T21:32:00.786Z,5.30
2023-03-07T21:34:30.582Z,5.30
2023-03-07T21:37:00.389Z,5.40
2023-03-07T21:39:30.221Z,5.30
2023-03-07T21:42:02.547Z,5.30
2023-03-07T21:44:33.066Z,5.30
2023-03-07T21:47:02.998Z,5.40
2023-03-07T21:49:33.993Z,5.40
2023-03-07T21:52:04.474Z,5.40
2023-03-07T21:54:34.484Z,5.40
2023-03-07T21:57:06.863Z,5.40
2023-03-07T21:59:36.708Z,5.40
2023-03-07T22:02:06.591Z,5.40
2023-03-07T22:04:36.485Z,5.40
2023-03-07T22:07:06.396Z,5.40
2023-03-07T22:09:36.436Z,5.40
2023-03-07T22:12:09.603Z,5.40
2023-03-07T22:14:39.340Z,5.30
2023-03-07T22:17:09.099Z,5.30
2023-03-07T22:19:38.819Z,5.30
2023-03-07T22:22:08.757Z,5.30
2023-03-07T22:24:38.535Z,5.30
2023-03-07T22:27:10.882Z,5.20
2023-03-07T22:29:40.644Z,5.20
2023-03-07T22:32:10.564Z,5.20
2023-03-07T22:34:40.776Z,5.10
2023-03-07T22:37:10.569Z,5.10
2023-03-07T22:39:40.569Z,5.10
2023-03-07T22:42:13.150Z,5.10
2023-03-07T22:44:42.975Z,5.10
2023-03-07T22:47:12.734Z,5.00
2023-03-07T22:49:42.536Z,5.00
2023-03-07T22:52:12.391Z,5.00
2023-03-07T22:54:43.617Z,4.90
2023-03-07T22:57:16.075Z,4.90
2023-03-07T22:59:45.811Z,4.90
2023-03-07T23:02:15.560Z,4.90
2023-03-07T23:04:45.487Z,4.80
2023-03-07T23:07:16.294Z,4.80
2023-03-07T23:09:46.195Z,4.80
2023-03-07T23:12:18.565Z,4.80
2023-03-07T23:14:48.530Z,4.80
2023-03-07T23:17:18.261Z,4.70
2023-03-07T23:19:48.040Z,4.80
2023-03-07T23:22:17.774Z,4.80
2023-03-07T23:24:47.714Z,4.80
2023-03-07T23:27:20.081Z,4.80
2023-03-07T23:29:49.877Z,4.80
2023-03-07T23:32:19.606Z,4.80
2023-03-07T23:34:49.516Z,4.80
2023-03-07T23:37:19.378Z,4.70
2023-03-07T23:39:49.099Z,4.70
2023-03-07T23:42:21.896Z,4.70
2023-03-07T23:44:52.105Z,4.70
2023-03-07T23:47:21.839Z,4.60
2023-03-07T23:49:51.582Z,4.60
2023-03-07T23:52:21.328Z,4.60
2023-03-07T23:54:51.153Z,4.60
2023-03-07T23:57:23.516Z,4.60
2023-03-07T23:59:53.311Z,4.60
